Festivo — EAEQ — position and weather

sailwx.info

Track history (hours):
 
Tides and Currents Weather Stations Pressure Air Temp Water Temp Dewpoint Dewpoint Depression Visibility Wind Speed Wind Dir Waves Ship Positions

Festivo

Last reported at 2017-Sep-21 06:49 UTC. Time now 2017-Sep-22 06:29 UTC.
Position N 35°54' W 005°19'.

Length 136 m; draft 4.5 m.

Type: Cargo ship. MMSI: 225410000.

Date/timePositionNaut miles runAvg speedWind from/ knotsBaromVisibWave heightAir tempDewpointWater temp
2017-Sep-21 06:49N 35°54' W 005°19'0 0.0
2017-Sep-21 06:25N 35°54' W 005°19'0 0.0
2017-Sep-21 05:58N 35°54' W 005°19'0 0.0
2017-Sep-21 05:30N 35°54' W 005°19'0 0.0
2017-Sep-21 05:00N 35°54' W 005°19'0 1.0
2017-Sep-21 04:30N 35°54' W 005°19'3 6.9
2017-Sep-21 04:00N 35°56' W 005°16'3 6.5
2017-Sep-21 03:30N 35°57' W 005°12'4 8.1
2017-Sep-21 03:00N 35°59' W 005°07'5 0.1
2017-Sep-19 08:37N 35°59' W 005°13'112.3
2017-Sep-19 08:30N 35°58' W 005°14'611.1
2017-Sep-19 08:01N 35°54' W 005°19'1 1.2
2017-Sep-19 07:28N 35°54' W 005°19'0 0.0
2017-Sep-19 06:58N 35°54' W 005°19'0 0.0
2017-Sep-19 06:28N 35°54' W 005°19'0 0.0
2017-Sep-19 05:58N 35°54' W 005°19'0 0.0
2017-Sep-19 05:28N 35°54' W 005°19'0 0.0
2017-Sep-19 04:59N 35°54' W 005°19'1 2.6
2017-Sep-19 04:31N 35°55' W 005°18'2 3.5
2017-Sep-19 04:00N 35°56' W 005°17'3 6.0
2017-Sep-19 03:30N 35°58' W 005°14'  
2017-Sep-14 09:16N 35°58' W 005°15'311.4
2017-Sep-14 09:00N 35°56' W 005°17'3 5.9
2017-Sep-14 08:30N 35°54' W 005°19'0 0.0
2017-Sep-14 07:58N 35°54' W 005°19'0 0.0
2017-Sep-14 07:28N 35°54' W 005°19'0 0.0
2017-Sep-14 06:58N 35°54' W 005°19'0 0.0
2017-Sep-14 06:28N 35°54' W 005°19'0 0.0
2017-Sep-14 06:00N 35°54' W 005°19'2 3.2
2017-Sep-14 05:30N 35°55' W 005°18'2 3.3
2017-Sep-14 05:00N 35°56' W 005°17'510.1
2017-Sep-14 04:30N 36°00' W 005°13'2 0.0
2017-Sep-12 09:20N 35°59' W 005°11'412.6
2017-Sep-12 09:00N 35°57' W 005°16'4 8.8
2017-Sep-12 08:31N 35°54' W 005°19'0 0.0
2017-Sep-12 08:00N 35°54' W 005°19'0 0.0
2017-Sep-12 07:30N 35°54' W 005°19'0 0.0
2017-Sep-12 07:00N 35°54' W 005°19'0 0.0
2017-Sep-12 06:30N 35°54' W 005°19'0 0.0
2017-Sep-12 06:00N 35°54' W 005°19'0 0.0
2017-Sep-12 05:30N 35°54' W 005°19'0 0.0
2017-Sep-12 05:00N 35°54' W 005°19'1 1.2
2017-Sep-12 04:30N 35°54' W 005°19'4 7.3
2017-Sep-12 04:00N 35°56' W 005°16'3 6.9
2017-Sep-12 03:30N 35°59' W 005°13'4 7.1
2017-Sep-12 03:00N 36°01' W 005°10'8 7.4
2017-Sep-12 01:52N 36°07' W 005°02'3 7.9
2017-Sep-12 01:30N 36°09' W 004°59'  
Track history (hours):
 
Tides and Currents Weather Stations Pressure Air Temp Water Temp Dewpoint Dewpoint Depression Visibility Wind Speed Wind Dir Waves Ship Positions

Festivo

Last reported at 2017-Sep-21 06:49 UTC. Time now 2017-Sep-22 06:29 UTC.
Position N 35°54' W 005°19'.

Length 136 m; draft 4.5 m.

Type: Cargo ship. MMSI: 225410000.

Date/timePositionNaut miles runAvg speedWind from/ knotsBaromVisibWave heightAir tempDewpointWater temp
2017-Sep-21 06:49N 35°54' W 005°19'0 0.0
2017-Sep-21 06:25N 35°54' W 005°19'0 0.0
2017-Sep-21 05:58N 35°54' W 005°19'0 0.0
2017-Sep-21 05:30N 35°54' W 005°19'0 0.0
2017-Sep-21 05:00N 35°54' W 005°19'0 1.0
2017-Sep-21 04:30N 35°54' W 005°19'3 6.9
2017-Sep-21 04:00N 35°56' W 005°16'3 6.5
2017-Sep-21 03:30N 35°57' W 005°12'4 8.1
2017-Sep-21 03:00N 35°59' W 005°07'5 0.1
2017-Sep-19 08:37N 35°59' W 005°13'112.3
2017-Sep-19 08:30N 35°58' W 005°14'611.1
2017-Sep-19 08:01N 35°54' W 005°19'1 1.2
2017-Sep-19 07:28N 35°54' W 005°19'0 0.0
2017-Sep-19 06:58N 35°54' W 005°19'0 0.0
2017-Sep-19 06:28N 35°54' W 005°19'0 0.0
2017-Sep-19 05:58N 35°54' W 005°19'0 0.0
2017-Sep-19 05:28N 35°54' W 005°19'0 0.0
2017-Sep-19 04:59N 35°54' W 005°19'1 2.6
2017-Sep-19 04:31N 35°55' W 005°18'2 3.5
2017-Sep-19 04:00N 35°56' W 005°17'3 6.0
2017-Sep-19 03:30N 35°58' W 005°14'  
2017-Sep-14 09:16N 35°58' W 005°15'311.4
2017-Sep-14 09:00N 35°56' W 005°17'3 5.9
2017-Sep-14 08:30N 35°54' W 005°19'0 0.0
2017-Sep-14 07:58N 35°54' W 005°19'0 0.0
2017-Sep-14 07:28N 35°54' W 005°19'0 0.0
2017-Sep-14 06:58N 35°54' W 005°19'0 0.0
2017-Sep-14 06:28N 35°54' W 005°19'0 0.0
2017-Sep-14 06:00N 35°54' W 005°19'2 3.2
2017-Sep-14 05:30N 35°55' W 005°18'2 3.3
2017-Sep-14 05:00N 35°56' W 005°17'510.1
2017-Sep-14 04:30N 36°00' W 005°13'2 0.0
2017-Sep-12 09:20N 35°59' W 005°11'412.6
2017-Sep-12 09:00N 35°57' W 005°16'4 8.8
2017-Sep-12 08:31N 35°54' W 005°19'0 0.0
2017-Sep-12 08:00N 35°54' W 005°19'0 0.0
2017-Sep-12 07:30N 35°54' W 005°19'0 0.0
2017-Sep-12 07:00N 35°54' W 005°19'0 0.0
2017-Sep-12 06:30N 35°54' W 005°19'0 0.0
2017-Sep-12 06:00N 35°54' W 005°19'0 0.0
2017-Sep-12 05:30N 35°54' W 005°19'0 0.0
2017-Sep-12 05:00N 35°54' W 005°19'1 1.2
2017-Sep-12 04:30N 35°54' W 005°19'4 7.3
2017-Sep-12 04:00N 35°56' W 005°16'3 6.9
2017-Sep-12 03:30N 35°59' W 005°13'4 7.1
2017-Sep-12 03:00N 36°01' W 005°10'8 7.4
2017-Sep-12 01:52N 36°07' W 005°02'3 7.9
2017-Sep-12 01:30N 36°09' W 004°59'  

Dump ship's entire track history